sensor_id;sensor_type;location;lat;lon;timestamp;pressure;altitude;pressure_sealevel;temperature;humidity
82953;BME280;74888;40.196;44.560;2024-02-21T00:02:19;87592.28;;;8.16;41.51
82953;BME280;74888;40.196;44.560;2024-02-21T00:04:45;87603.59;;;8.27;41.07
82953;BME280;74888;40.196;44.560;2024-02-21T00:07:10;87608.66;;;8.36;40.47
82953;BME280;74888;40.196;44.560;2024-02-21T00:09:36;87610.19;;;8.48;40.82
82953;BME280;74888;40.196;44.560;2024-02-21T00:12:02;87604.50;;;8.50;39.45
82953;BME280;74888;40.196;44.560;2024-02-21T00:14:28;87601.41;;;8.51;39.81
82953;BME280;74888;40.196;44.560;2024-02-21T00:16:54;87600.25;;;8.52;39.21
82953;BME280;74888;40.196;44.560;2024-02-21T00:22:41;87608.19;;;8.63;39.37
82953;BME280;74888;40.196;44.560;2024-02-21T00:25:07;87604.69;;;8.72;39.94
82953;BME280;74888;40.196;44.560;2024-02-21T00:27:33;87607.09;;;8.76;39.49
82953;BME280;74888;40.196;44.560;2024-02-21T00:29:58;87608.75;;;8.79;40.15
82953;BME280;74888;40.196;44.560;2024-02-21T00:32:24;87604.06;;;8.83;40.51
82953;BME280;74888;40.196;44.560;2024-02-21T00:34:50;87609.28;;;8.83;40.57
82953;BME280;74888;40.196;44.560;2024-02-21T00:37:15;87610.72;;;8.84;41.04
82953;BME280;74888;40.196;44.560;2024-02-21T00:39:41;87602.25;;;8.68;41.20
82953;BME280;74888;40.196;44.560;2024-02-21T00:42:07;87601.31;;;8.66;40.92
82953;BME280;74888;40.196;44.560;2024-02-21T00:44:33;87599.66;;;8.68;40.61
82953;BME280;74888;40.196;44.560;2024-02-21T00:46:59;87604.47;;;8.76;40.34
82953;BME280;74888;40.196;44.560;2024-02-21T00:49:24;87606.88;;;8.79;40.24
82953;BME280;74888;40.196;44.560;2024-02-21T00:51:50;87607.34;;;8.78;39.39
82953;BME280;74888;40.196;44.560;2024-02-21T00:54:16;87611.63;;;8.81;39.24
82953;BME280;74888;40.196;44.560;2024-02-21T00:56:42;87610.44;;;8.76;39.50
82953;BME280;74888;40.196;44.560;2024-02-21T00:59:08;87608.31;;;8.80;39.00
82953;BME280;74888;40.196;44.560;2024-02-21T01:01:33;87615.69;;;8.82;38.38
82953;BME280;74888;40.196;44.560;2024-02-21T01:03:59;87609.53;;;8.85;38.41
82953;BME280;74888;40.196;44.560;2024-02-21T01:06:25;87620.50;;;8.89;38.42
82953;BME280;74888;40.196;44.560;2024-02-21T01:08:50;87624.09;;;8.91;38.09
82953;BME280;74888;40.196;44.560;2024-02-21T01:11:16;87619.59;;;8.92;38.57
82953;BME280;74888;40.196;44.560;2024-02-21T01:13:42;87619.53;;;8.86;38.30
82953;BME280;74888;40.196;44.560;2024-02-21T01:16:07;87615.25;;;8.89;38.83
82953;BME280;74888;40.196;44.560;2024-02-21T01:18:34;87616.72;;;8.90;38.27
82953;BME280;74888;40.196;44.560;2024-02-21T01:20:59;87620.28;;;8.92;38.33
82953;BME280;74888;40.196;44.560;2024-02-21T01:23:25;87625.25;;;8.90;37.91
82953;BME280;74888;40.196;44.560;2024-02-21T01:25:51;87612.16;;;8.85;37.81
82953;BME280;74888;40.196;44.560;2024-02-21T01:28:16;87625.94;;;8.85;38.22
82953;BME280;74888;40.196;44.560;2024-02-21T01:30:42;87629.53;;;8.88;39.02
82953;BME280;74888;40.196;44.560;2024-02-21T01:33:07;87632.00;;;8.97;38.40
82953;BME280;74888;40.196;44.560;2024-02-21T01:35:34;87637.47;;;8.99;38.14
82953;BME280;74888;40.196;44.560;2024-02-21T01:38:00;87627.72;;;8.99;38.43
82953;BME280;74888;40.196;44.560;2024-02-21T01:40:25;87632.44;;;8.95;38.87
82953;BME280;74888;40.196;44.560;2024-02-21T01:42:54;87635.53;;;8.94;39.43
82953;BME280;74888;40.196;44.560;2024-02-21T01:45:20;87641.53;;;9.00;39.17
82953;BME280;74888;40.196;44.560;2024-02-21T01:47:46;87639.53;;;8.89;39.22
82953;BME280;74888;40.196;44.560;2024-02-21T01:50:12;87631.91;;;8.86;39.10
82953;BME280;74888;40.196;44.560;2024-02-21T01:52:38;87639.53;;;8.89;39.27
82953;BME280;74888;40.196;44.560;2024-02-21T01:55:05;87638.13;;;8.94;38.91
82953;BME280;74888;40.196;44.560;2024-02-21T01:57:31;87632.91;;;8.94;38.41
82953;BME280;74888;40.196;44.560;2024-02-21T01:59:57;87635.81;;;9.01;39.15
82953;BME280;74888;40.196;44.560;2024-02-21T02:02:24;87634.16;;;9.04;38.45
82953;BME280;74888;40.196;44.560;2024-02-21T02:04:50;87639.41;;;9.04;38.04
82953;BME280;74888;40.196;44.560;2024-02-21T02:07:17;87635.56;;;8.99;38.40
82953;BME280;74888;40.196;44.560;2024-02-21T02:09:43;87639.16;;;9.02;39.26
82953;BME280;74888;40.196;44.560;2024-02-21T02:12:09;87638.50;;;9.07;38.50
82953;BME280;74888;40.196;44.560;2024-02-21T02:14:34;87633.00;;;9.05;37.65
82953;BME280;74888;40.196;44.560;2024-02-21T02:17:00;87639.63;;;9.00;37.93
82953;BME280;74888;40.196;44.560;2024-02-21T02:19:25;87640.00;;;8.88;38.41
82953;BME280;74888;40.196;44.560;2024-02-21T02:21:54;87632.03;;;8.71;38.83
82953;BME280;74888;40.196;44.560;2024-02-21T02:24:24;87630.44;;;8.53;40.26
82953;BME280;74888;40.196;44.560;2024-02-21T02:26:50;87644.97;;;8.29;40.32
82953;BME280;74888;40.196;44.560;2024-02-21T02:29:16;87644.81;;;8.18;40.27
82953;BME280;74888;40.196;44.560;2024-02-21T02:31:42;87640.31;;;8.18;41.41
82953;BME280;74888;40.196;44.560;2024-02-21T02:34:08;87647.78;;;8.25;41.07
82953;BME280;74888;40.196;44.560;2024-02-21T02:36:35;87646.47;;;8.15;41.67
82953;BME280;74888;40.196;44.560;2024-02-21T02:39:01;87654.16;;;7.79;42.38
82953;BME280;74888;40.196;44.560;2024-02-21T02:41:26;87657.41;;;7.74;42.55
82953;BME280;74888;40.196;44.560;2024-02-21T02:43:52;87656.28;;;7.80;42.33
82953;BME280;74888;40.196;44.560;2024-02-21T02:46:17;87661.00;;;7.76;42.13
82953;BME280;74888;40.196;44.560;2024-02-21T02:48:43;87650.00;;;7.52;42.68
82953;BME280;74888;40.196;44.560;2024-02-21T02:51:10;87655.00;;;7.35;43.67
82953;BME280;74888;40.196;44.560;2024-02-21T02:53:35;87655.97;;;7.18;43.49
82953;BME280;74888;40.196;44.560;2024-02-21T02:56:01;87646.66;;;7.31;43.63
82953;BME280;74888;40.196;44.560;2024-02-21T02:58:28;87653.53;;;7.49;43.00
82953;BME280;74888;40.196;44.560;2024-02-21T03:00:54;87651.19;;;7.51;43.33
82953;BME280;74888;40.196;44.560;2024-02-21T03:03:19;87646.69;;;7.52;42.97
82953;BME280;74888;40.196;44.560;2024-02-21T03:05:46;87648.56;;;7.71;42.24
82953;BME280;74888;40.196;44.560;2024-02-21T03:08:11;87648.66;;;7.77;41.57
82953;BME280;74888;40.196;44.560;2024-02-21T03:10:37;87651.78;;;7.81;41.49
82953;BME280;74888;40.196;44.560;2024-02-21T03:13:03;87655.09;;;8.01;42.20
82953;BME280;74888;40.196;44.560;2024-02-21T03:15:30;87655.28;;;8.18;41.86
82953;BME280;74888;40.196;44.560;2024-02-21T03:17:55;87652.09;;;8.28;41.79
82953;BME280;74888;40.196;44.560;2024-02-21T03:20:22;87653.06;;;8.31;40.90
82953;BME280;74888;40.196;44.560;2024-02-21T03:22:47;87651.50;;;8.19;40.70
82953;BME280;74888;40.196;44.560;2024-02-21T03:25:13;87644.91;;;8.03;41.03
82953;BME280;74888;40.196;44.560;2024-02-21T03:27:40;87651.09;;;8.06;41.34
82953;BME280;74888;40.196;44.560;2024-02-21T03:30:06;87654.78;;;8.14;41.64
82953;BME280;74888;40.196;44.560;2024-02-21T03:32:35;87646.59;;;8.26;41.42
82953;BME280;74888;40.196;44.560;2024-02-21T03:35:00;87653.28;;;8.27;41.44
82953;BME280;74888;40.196;44.560;2024-02-21T03:37:26;87663.31;;;8.34;41.26
82953;BME280;74888;40.196;44.560;2024-02-21T03:39:51;87664.19;;;8.51;41.03
82953;BME280;74888;40.196;44.560;2024-02-21T03:42:17;87669.53;;;8.62;41.30
82953;BME280;74888;40.196;44.560;2024-02-21T03:44:42;87667.22;;;8.70;40.50
82953;BME280;74888;40.196;44.560;2024-02-21T03:47:08;87659.16;;;8.73;40.48
82953;BME280;74888;40.196;44.560;2024-02-21T03:49:36;87661.34;;;8.81;40.71
82953;BME280;74888;40.196;44.560;2024-02-21T03:52:01;87667.47;;;8.72;40.79
82953;BME280;74888;40.196;44.560;2024-02-21T03:54:27;87672.63;;;8.61;40.78
82953;BME280;74888;40.196;44.560;2024-02-21T03:56:52;87671.78;;;8.49;41.49
82953;BME280;74888;40.196;44.560;2024-02-21T03:59:18;87667.22;;;8.44;41.34
82953;BME280;74888;40.196;44.560;2024-02-21T04:01:44;87667.78;;;8.54;41.30
82953;BME280;74888;40.196;44.560;2024-02-21T04:04:10;87672.84;;;8.63;41.46
82953;BME280;74888;40.196;44.560;2024-02-21T04:06:36;87677.44;;;8.68;41.63
82953;BME280;74888;40.196;44.560;2024-02-21T04:09:02;87679.47;;;8.58;41.77
82953;BME280;74888;40.196;44.560;2024-02-21T04:11:27;87680.88;;;8.54;42.26
82953;BME280;74888;40.196;44.560;2024-02-21T04:13:53;87698.31;;;8.62;42.13
82953;BME280;74888;40.196;44.560;2024-02-21T04:16:18;87689.13;;;8.73;42.07
82953;BME280;74888;40.196;44.560;2024-02-21T04:18:44;87688.66;;;8.74;41.53
82953;BME280;74888;40.196;44.560;2024-02-21T04:21:11;87692.97;;;8.77;41.64
82953;BME280;74888;40.196;44.560;2024-02-21T04:23:39;87690.41;;;8.83;40.99
82953;BME280;74888;40.196;44.560;2024-02-21T04:26:05;87694.28;;;8.93;41.33
82953;BME280;74888;40.196;44.560;2024-02-21T04:28:30;87684.09;;;8.95;40.93
82953;BME280;74888;40.196;44.560;2024-02-21T04:30:56;87691.94;;;8.95;40.89
82953;BME280;74888;40.196;44.560;2024-02-21T04:33:22;87696.97;;;8.98;40.41
82953;BME280;74888;40.196;44.560;2024-02-21T04:35:47;87700.53;;;9.01;40.24
82953;BME280;74888;40.196;44.560;2024-02-21T04:38:13;87702.69;;;9.02;39.82
82953;BME280;74888;40.196;44.560;2024-02-21T04:40:40;87701.28;;;9.01;40.53
82953;BME280;74888;40.196;44.560;2024-02-21T04:43:05;87703.16;;;9.01;40.17
82953;BME280;74888;40.196;44.560;2024-02-21T04:45:31;87721.00;;;8.97;40.56
82953;BME280;74888;40.196;44.560;2024-02-21T04:47:56;87714.31;;;8.96;40.48
82953;BME280;74888;40.196;44.560;2024-02-21T04:50:22;87719.81;;;8.98;40.77
82953;BME280;74888;40.196;44.560;2024-02-21T04:52:47;87726.06;;;9.06;40.70
82953;BME280;74888;40.196;44.560;2024-02-21T04:55:14;87720.34;;;9.07;40.39
82953;BME280;74888;40.196;44.560;2024-02-21T04:57:39;87723.75;;;9.13;40.61
82953;BME280;74888;40.196;44.560;2024-02-21T05:00:06;87722.13;;;9.21;40.10
82953;BME280;74888;40.196;44.560;2024-02-21T05:02:31;87726.22;;;9.28;40.67
82953;BME280;74888;40.196;44.560;2024-02-21T05:04:57;87733.25;;;9.42;40.18
82953;BME280;74888;40.196;44.560;2024-02-21T05:07:23;87737.59;;;9.50;40.01
82953;BME280;74888;40.196;44.560;2024-02-21T05:09:48;87736.81;;;9.39;39.47
82953;BME280;74888;40.196;44.560;2024-02-21T05:12:14;87733.72;;;9.40;39.19
82953;BME280;74888;40.196;44.560;2024-02-21T05:14:39;87735.47;;;9.54;39.41
82953;BME280;74888;40.196;44.560;2024-02-21T05:17:05;87738.31;;;9.51;39.57
82953;BME280;74888;40.196;44.560;2024-02-21T05:19:31;87739.91;;;9.43;38.91
82953;BME280;74888;40.196;44.560;2024-02-21T05:21:56;87743.56;;;9.20;39.22
82953;BME280;74888;40.196;44.560;2024-02-21T05:24:22;87748.22;;;9.10;38.77
82953;BME280;74888;40.196;44.560;2024-02-21T05:26:47;87749.06;;;9.27;39.58
82953;BME280;74888;40.196;44.560;2024-02-21T05:29:13;87748.59;;;9.29;38.73
82953;BME280;74888;40.196;44.560;2024-02-21T05:34:17;87757.38;;;9.51;39.31
82953;BME280;74888;40.196;44.560;2024-02-21T05:36:42;87761.66;;;9.54;39.04
82953;BME280;74888;40.196;44.560;2024-02-21T05:39:08;87754.88;;;9.37;38.28
82953;BME280;74888;40.196;44.560;2024-02-21T05:41:34;87755.00;;;9.22;38.77
82953;BME280;74888;40.196;44.560;2024-02-21T05:43:59;87753.09;;;9.23;38.95
82953;BME280;74888;40.196;44.560;2024-02-21T05:46:25;87751.16;;;9.18;39.95
82953;BME280;74888;40.196;44.560;2024-02-21T05:48:50;87749.63;;;9.06;38.78
82953;BME280;74888;40.196;44.560;2024-02-21T05:51:16;87750.69;;;8.94;39.32
82953;BME280;74888;40.196;44.560;2024-02-21T05:53:41;87745.84;;;8.87;38.51
82953;BME280;74888;40.196;44.560;2024-02-21T05:56:13;87747.88;;;8.97;38.37
82953;BME280;74888;40.196;44.560;2024-02-21T05:58:40;87748.44;;;9.07;37.91
82953;BME280;74888;40.196;44.560;2024-02-21T06:01:06;87747.13;;;9.22;37.10
82953;BME280;74888;40.196;44.560;2024-02-21T06:03:32;87745.91;;;9.18;37.53
82953;BME280;74888;40.196;44.560;2024-02-21T06:05:59;87755.25;;;9.24;37.08
82953;BME280;74888;40.196;44.560;2024-02-21T06:08:25;87741.47;;;9.29;37.69
82953;BME280;74888;40.196;44.560;2024-02-21T06:10:50;87746.00;;;9.29;36.14
82953;BME280;74888;40.196;44.560;2024-02-21T06:13:23;87745.78;;;9.32;36.93
82953;BME280;74888;40.196;44.560;2024-02-21T06:15:48;87748.31;;;9.52;36.03
82953;BME280;74888;40.196;44.560;2024-02-21T06:18:16;87747.50;;;9.72;36.79
82953;BME280;74888;40.196;44.560;2024-02-21T06:20:42;87754.34;;;10.01;36.48
82953;BME280;74888;40.196;44.560;2024-02-21T06:23:08;87743.50;;;10.19;36.18
82953;BME280;74888;40.196;44.560;2024-02-21T06:25:34;87740.84;;;10.13;34.95
82953;BME280;74888;40.196;44.560;2024-02-21T06:27:59;87745.66;;;10.20;35.66
82953;BME280;74888;40.196;44.560;2024-02-21T06:30:25;87752.63;;;10.29;35.11
82953;BME280;74888;40.196;44.560;2024-02-21T06:32:52;87744.34;;;10.47;36.12
82953;BME280;74888;40.196;44.560;2024-02-21T06:35:17;87741.81;;;10.74;35.96
82953;BME280;74888;40.196;44.560;2024-02-21T06:37:43;87737.75;;;10.79;34.88
82953;BME280;74888;40.196;44.560;2024-02-21T06:40:10;87737.97;;;10.64;34.38
82953;BME280;74888;40.196;44.560;2024-02-21T06:42:36;87732.88;;;10.44;34.47
82953;BME280;74888;40.196;44.560;2024-02-21T06:45:02;87730.47;;;10.30;35.15
82953;BME280;74888;40.196;44.560;2024-02-21T06:47:27;87745.44;;;10.24;35.88
82953;BME280;74888;40.196;44.560;2024-02-21T06:49:53;87736.94;;;10.40;35.89
82953;BME280;74888;40.196;44.560;2024-02-21T06:52:18;87734.16;;;10.65;35.95
82953;BME280;74888;40.196;44.560;2024-02-21T06:54:49;87736.59;;;10.91;35.34
82953;BME280;74888;40.196;44.560;2024-02-21T06:57:14;87731.09;;;10.89;35.51
82953;BME280;74888;40.196;44.560;2024-02-21T06:59:43;87734.72;;;11.02;34.30
82953;BME280;74888;40.196;44.560;2024-02-21T07:02:08;87733.28;;;11.01;34.48
82953;BME280;74888;40.196;44.560;2024-02-21T07:04:34;87727.78;;;10.99;34.98
82953;BME280;74888;40.196;44.560;2024-02-21T07:07:00;87723.53;;;11.30;35.47
82953;BME280;74888;40.196;44.560;2024-02-21T07:09:26;87733.31;;;11.57;35.26
82953;BME280;74888;40.196;44.560;2024-02-21T07:11:54;87732.41;;;11.76;33.73
82953;BME280;74888;40.196;44.560;2024-02-21T07:14:19;87731.41;;;11.96;33.90
82953;BME280;74888;40.196;44.560;2024-02-21T07:16:45;87734.50;;;12.11;34.82
82953;BME280;74888;40.196;44.560;2024-02-21T07:19:10;87735.22;;;12.17;34.91
82953;BME280;74888;40.196;44.560;2024-02-21T07:21:36;87746.44;;;12.17;33.67
82953;BME280;74888;40.196;44.560;2024-02-21T07:24:04;87751.22;;;12.19;34.54
82953;BME280;74888;40.196;44.560;2024-02-21T07:26:31;87743.81;;;12.17;35.47
82953;BME280;74888;40.196;44.560;2024-02-21T07:28:56;87751.94;;;12.25;34.24
82953;BME280;74888;40.196;44.560;2024-02-21T07:31:22;87741.59;;;12.32;34.02
82953;BME280;74888;40.196;44.560;2024-02-21T07:33:48;87748.53;;;12.35;34.06
82953;BME280;74888;40.196;44.560;2024-02-21T07:36:15;87745.44;;;12.31;34.85
82953;BME280;74888;40.196;44.560;2024-02-21T07:38:42;87748.53;;;12.35;35.45
82953;BME280;74888;40.196;44.560;2024-02-21T07:41:07;87758.06;;;12.50;34.76
82953;BME280;74888;40.196;44.560;2024-02-21T07:43:33;87747.53;;;12.61;34.63
82953;BME280;74888;40.196;44.560;2024-02-21T07:45:58;87747.78;;;12.57;34.95
82953;BME280;74888;40.196;44.560;2024-02-21T07:48:24;87758.31;;;12.57;35.49
82953;BME280;74888;40.196;44.560;2024-02-21T07:50:51;87755.69;;;12.57;34.77
82953;BME280;74888;40.196;44.560;2024-02-21T07:53:16;87750.16;;;12.55;33.90
82953;BME280;74888;40.196;44.560;2024-02-21T07:55:42;87751.16;;;12.52;35.19
82953;BME280;74888;40.196;44.560;2024-02-21T07:58:07;87754.47;;;12.53;34.72
82953;BME280;74888;40.196;44.560;2024-02-21T08:00:33;87756.84;;;12.56;34.93
82953;BME280;74888;40.196;44.560;2024-02-21T08:02:59;87753.25;;;12.65;35.01
82953;BME280;74888;40.196;44.560;2024-02-21T08:05:24;87756.34;;;12.69;34.38
82953;BME280;74888;40.196;44.560;2024-02-21T08:07:50;87750.78;;;12.78;34.68
82953;BME280;74888;40.196;44.560;2024-02-21T08:10:16;87752.69;;;12.83;34.23
82953;BME280;74888;40.196;44.560;2024-02-21T08:12:41;87753.63;;;12.91;34.78
82953;BME280;74888;40.196;44.560;2024-02-21T08:15:07;87755.25;;;12.99;34.13
82953;BME280;74888;40.196;44.560;2024-02-21T08:17:36;87756.19;;;13.13;34.23
82953;BME280;74888;40.196;44.560;2024-02-21T08:20:03;87763.84;;;13.16;33.36
82953;BME280;74888;40.196;44.560;2024-02-21T08:22:30;87751.09;;;13.20;34.42
82953;BME280;74888;40.196;44.560;2024-02-21T08:24:56;87756.78;;;13.30;34.29
82953;BME280;74888;40.196;44.560;2024-02-21T08:27:21;87759.13;;;13.39;34.55
82953;BME280;74888;40.196;44.560;2024-02-21T08:29:47;87756.72;;;13.41;34.06
82953;BME280;74888;40.196;44.560;2024-02-21T08:32:13;87750.25;;;13.42;33.75
82953;BME280;74888;40.196;44.560;2024-02-21T08:34:38;87753.88;;;13.33;34.52
82953;BME280;74888;40.196;44.560;2024-02-21T08:37:04;87748.31;;;13.42;34.64
82953;BME280;74888;40.196;44.560;2024-02-21T08:39:30;87755.69;;;13.55;35.21
82953;BME280;74888;40.196;44.560;2024-02-21T08:41:56;87746.75;;;13.64;34.64
82953;BME280;74888;40.196;44.560;2024-02-21T08:44:27;87745.25;;;13.74;34.41
82953;BME280;74888;40.196;44.560;2024-02-21T08:46:53;87742.38;;;13.72;34.47
82953;BME280;74888;40.196;44.560;2024-02-21T08:49:18;87737.25;;;13.79;35.39
82953;BME280;74888;40.196;44.560;2024-02-21T08:51:44;87743.22;;;13.85;34.49
82953;BME280;74888;40.196;44.560;2024-02-21T08:54:09;87734.69;;;13.74;34.39
82953;BME280;74888;40.196;44.560;2024-02-21T08:56:35;87736.34;;;13.77;35.06
82953;BME280;74888;40.196;44.560;2024-02-21T08:59:01;87741.34;;;13.80;34.87
82953;BME280;74888;40.196;44.560;2024-02-21T09:01:27;87732.44;;;13.83;34.69
82953;BME280;74888;40.196;44.560;2024-02-21T09:03:54;87741.59;;;13.82;34.78
82953;BME280;74888;40.196;44.560;2024-02-21T09:06:21;87727.34;;;13.91;34.77
82953;BME280;74888;40.196;44.560;2024-02-21T09:08:48;87729.88;;;14.02;34.59
82953;BME280;74888;40.196;44.560;2024-02-21T09:11:13;87729.63;;;14.05;33.79
82953;BME280;74888;40.196;44.560;2024-02-21T09:13:39;87715.25;;;14.01;33.87
82953;BME280;74888;40.196;44.560;2024-02-21T09:16:05;87727.25;;;14.02;34.47
82953;BME280;74888;40.196;44.560;2024-02-21T09:18:31;87723.56;;;14.10;33.02
82953;BME280;74888;40.196;44.560;2024-02-21T09:20:57;87714.94;;;14.10;34.02
82953;BME280;74888;40.196;44.560;2024-02-21T09:23:25;87712.25;;;14.15;34.01
82953;BME280;74888;40.196;44.560;2024-02-21T09:25:51;87712.41;;;14.23;33.89
82953;BME280;74888;40.196;44.560;2024-02-21T09:28:16;87714.84;;;14.21;33.69
82953;BME280;74888;40.196;44.560;2024-02-21T09:30:42;87702.97;;;14.09;34.05
82953;BME280;74888;40.196;44.560;2024-02-21T09:33:08;87715.16;;;14.12;33.36
82953;BME280;74888;40.196;44.560;2024-02-21T09:35:33;87705.75;;;14.16;32.58
82953;BME280;74888;40.196;44.560;2024-02-21T09:37:59;87701.31;;;14.30;33.24
82953;BME280;74888;40.196;44.560;2024-02-21T09:40:25;87701.56;;;14.32;33.39
82953;BME280;74888;40.196;44.560;2024-02-21T09:43:04;87699.13;;;14.34;33.62
82953;BME280;74888;40.196;44.560;2024-02-21T09:45:33;87701.09;;;14.28;33.43
82953;BME280;74888;40.196;44.560;2024-02-21T09:50:38;87701.91;;;14.17;33.98
82953;BME280;74888;40.196;44.560;2024-02-21T09:53:06;87692.22;;;14.31;33.59
82953;BME280;74888;40.196;44.560;2024-02-21T09:55:33;87694.06;;;14.36;33.22
82953;BME280;74888;40.196;44.560;2024-02-21T09:58:01;87686.66;;;14.34;33.34
82953;BME280;74888;40.196;44.560;2024-02-21T10:00:29;87680.94;;;14.30;33.79
82953;BME280;74888;40.196;44.560;2024-02-21T10:02:55;87683.56;;;14.30;33.68
82953;BME280;74888;40.196;44.560;2024-02-21T10:05:21;87677.97;;;14.39;33.81
82953;BME280;74888;40.196;44.560;2024-02-21T10:07:50;87682.16;;;14.48;33.15
82953;BME280;74888;40.196;44.560;2024-02-21T10:10:16;87679.91;;;14.57;33.38
82953;BME280;74888;40.196;44.560;2024-02-21T10:12:51;87671.53;;;14.53;32.56
82953;BME280;74888;40.196;44.560;2024-02-21T10:15:23;87672.47;;;14.56;32.80
82953;BME280;74888;40.196;44.560;2024-02-21T10:17:58;87668.03;;;14.45;32.50
82953;BME280;74888;40.196;44.560;2024-02-21T10:20:24;87658.69;;;14.44;33.30
82953;BME280;74888;40.196;44.560;2024-02-21T10:23:03;87658.78;;;14.57;32.65
82953;BME280;74888;40.196;44.560;2024-02-21T10:25:36;87651.91;;;14.49;32.72
82953;BME280;74888;40.196;44.560;2024-02-21T10:28:12;87660.19;;;14.58;32.58
82953;BME280;74888;40.196;44.560;2024-02-21T10:30:38;87661.78;;;14.67;32.99
82953;BME280;74888;40.196;44.560;2024-02-21T10:33:05;87653.34;;;14.68;32.35
82953;BME280;74888;40.196;44.560;2024-02-21T10:35:32;87656.50;;;14.67;32.27
82953;BME280;74888;40.196;44.560;2024-02-21T10:37:59;87659.78;;;14.54;32.31
82953;BME280;74888;40.196;44.560;2024-02-21T10:42:57;87658.34;;;14.72;31.80
82953;BME280;74888;40.196;44.560;2024-02-21T10:45:35;87649.84;;;14.79;31.77
82953;BME280;74888;40.196;44.560;2024-02-21T10:48:14;87652.44;;;14.85;31.33
82953;BME280;74888;40.196;44.560;2024-02-21T10:51:03;87642.00;;;14.92;32.14
82953;BME280;74888;40.196;44.560;2024-02-21T10:56:31;87648.78;;;15.06;31.57
82953;BME280;74888;40.196;44.560;2024-02-21T10:59:02;87644.72;;;15.05;31.67
82953;BME280;74888;40.196;44.560;2024-02-21T11:01:28;87642.34;;;15.02;30.57
82953;BME280;74888;40.196;44.560;2024-02-21T11:03:58;87630.63;;;14.97;31.70
82953;BME280;74888;40.196;44.560;2024-02-21T11:06:26;87630.28;;;14.88;30.81
82953;BME280;74888;40.196;44.560;2024-02-21T11:11:26;87631.81;;;14.83;30.86
82953;BME280;74888;40.196;44.560;2024-02-21T11:13:52;87628.38;;;14.69;30.88
82953;BME280;74888;40.196;44.560;2024-02-21T11:16:22;87626.94;;;14.68;29.75
82953;BME280;74888;40.196;44.560;2024-02-21T11:18:48;87625.22;;;14.71;30.93
82953;BME280;74888;40.196;44.560;2024-02-21T11:21:15;87618.22;;;14.73;30.52
82953;BME280;74888;40.196;44.560;2024-02-21T11:23:41;87616.34;;;14.87;30.09
82953;BME280;74888;40.196;44.560;2024-02-21T11:26:07;87613.47;;;15.04;30.28
82953;BME280;74888;40.196;44.560;2024-02-21T11:28:33;87603.94;;;15.14;30.35
82953;BME280;74888;40.196;44.560;2024-02-21T11:31:12;87607.75;;;15.18;29.42
82953;BME280;74888;40.196;44.560;2024-02-21T11:33:47;87603.47;;;15.15;30.25
82953;BME280;74888;40.196;44.560;2024-02-21T11:36:25;87607.75;;;15.18;28.59
82953;BME280;74888;40.196;44.560;2024-02-21T11:38:52;87601.19;;;15.06;29.02
82953;BME280;74888;40.196;44.560;2024-02-21T11:41:19;87599.81;;;14.87;28.61
82953;BME280;74888;40.196;44.560;2024-02-21T11:43:48;87603.94;;;14.82;28.11
82953;BME280;74888;40.196;44.560;2024-02-21T11:46:14;87602.31;;;14.60;27.07
82953;BME280;74888;40.196;44.560;2024-02-21T11:48:42;87591.00;;;14.41;27.90
82953;BME280;74888;40.196;44.560;2024-02-21T11:51:21;87593.38;;;14.45;27.06
82953;BME280;74888;40.196;44.560;2024-02-21T11:53:47;87600.38;;;14.61;28.88
82953;BME280;74888;40.196;44.560;2024-02-21T11:56:13;87600.59;;;14.82;28.51
82953;BME280;74888;40.196;44.560;2024-02-21T11:58:39;87595.41;;;15.08;28.45
82953;BME280;74888;40.196;44.560;2024-02-21T12:01:05;87599.13;;;15.31;28.00
82953;BME280;74888;40.196;44.560;2024-02-21T12:03:32;87588.69;;;15.38;27.92
82953;BME280;74888;40.196;44.560;2024-02-21T12:06:01;87594.25;;;15.22;28.12
82953;BME280;74888;40.196;44.560;2024-02-21T12:08:40;87604.84;;;15.03;26.39
82953;BME280;74888;40.196;44.560;2024-02-21T12:11:16;87599.31;;;14.88;26.45
82953;BME280;74888;40.196;44.560;2024-02-21T12:13:41;87597.22;;;14.81;28.12
82953;BME280;74888;40.196;44.560;2024-02-21T12:16:07;87597.81;;;14.74;27.67
82953;BME280;74888;40.196;44.560;2024-02-21T12:18:33;87601.50;;;14.65;27.58
82953;BME280;74888;40.196;44.560;2024-02-21T12:20:59;87594.88;;;14.59;27.33
82953;BME280;74888;40.196;44.560;2024-02-21T12:23:29;87608.59;;;14.57;26.51
82953;BME280;74888;40.196;44.560;2024-02-21T12:25:55;87606.97;;;14.54;27.37
82953;BME280;74888;40.196;44.560;2024-02-21T12:28:21;87601.00;;;14.48;27.29
82953;BME280;74888;40.196;44.560;2024-02-21T12:30:47;87606.81;;;14.47;26.92
82953;BME280;74888;40.196;44.560;2024-02-21T12:33:13;87609.31;;;14.39;27.82
82953;BME280;74888;40.196;44.560;2024-02-21T12:35:41;87603.94;;;14.45;26.87
82953;BME280;74888;40.196;44.560;2024-02-21T12:38:07;87600.59;;;14.63;27.31
82953;BME280;74888;40.196;44.560;2024-02-21T12:40:32;87597.63;;;14.85;27.40
82953;BME280;74888;40.196;44.560;2024-02-21T12:43:00;87598.63;;;15.01;26.81
82953;BME280;74888;40.196;44.560;2024-02-21T12:45:28;87599.38;;;15.14;26.31
82953;BME280;74888;40.196;44.560;2024-02-21T12:47:54;87597.00;;;15.29;25.91
82953;BME280;74888;40.196;44.560;2024-02-21T12:50:19;87600.06;;;15.33;25.66
82953;BME280;74888;40.196;44.560;2024-02-21T12:52:46;87594.78;;;15.33;25.12
82953;BME280;74888;40.196;44.560;2024-02-21T12:55:11;87595.19;;;15.37;25.60
82953;BME280;74888;40.196;44.560;2024-02-21T12:57:39;87591.06;;;15.42;25.66
82953;BME280;74888;40.196;44.560;2024-02-21T13:00:05;87591.78;;;15.42;25.51
82953;BME280;74888;40.196;44.560;2024-02-21T13:02:34;87597.97;;;15.45;25.46
82953;BME280;74888;40.196;44.560;2024-02-21T13:05:00;87598.72;;;15.45;25.26
82953;BME280;74888;40.196;44.560;2024-02-21T13:07:28;87591.97;;;15.44;25.34
82953;BME280;74888;40.196;44.560;2024-02-21T13:09:54;87583.97;;;15.50;25.34